Time;durP1;ratioP1;P1;durP2;ratioP2;P2;SDS_P1;SDS_P2;PMS_P1;PMS_P2;Temp;Humidity;BMP_temperature;BMP_pressure;BME280_temperature;BME280_humidity;BME280_pressure;Samples;Min_cycle;Max_cycle;Signal;HPM_P1;HPM_P2
2022/05/04 00:01:13;;;;;;;8.55;2.50;;;;;;;;;;5009132;28;20026;-76
2022/05/04 00:03:39;;;;;;;5.15;1.95;;;;;;;;;;5012283;28;20033;-75
2022/05/04 00:06:09;;;;;;;5.85;1.85;;;;;;;;;;5028510;28;20038;-76
2022/05/04 00:08:35;;;;;;;8.20;2.55;;;;;;;;;;5026300;28;20668;-75
2022/05/04 00:11:01;;;;;;;7.28;2.70;;;;;;;;;;5009324;28;20353;-75
2022/05/04 00:13:28;;;;;;;7.43;2.17;;;;;;;;;;5009041;28;20038;-76
2022/05/04 00:15:54;;;;;;;5.50;2.03;;;;;;;;;;5017678;28;20045;-76
2022/05/04 00:18:20;;;;;;;4.25;1.88;;;;;;;;;;5012792;28;20675;-75
2022/05/04 00:20:46;;;;;;;4.60;1.70;;;;;;;;;;5011657;28;20468;-76
2022/05/04 00:23:12;;;;;;;6.75;1.90;;;;;;;;;;5008968;28;20056;-75
2022/05/04 00:25:39;;;;;;;5.43;1.92;;;;;;;;;;5020892;28;20476;-75
2022/05/04 00:28:05;;;;;;;4.05;1.80;;;;;;;;;;5012572;28;20091;-75
2022/05/04 00:30:32;;;;;;;4.45;1.88;;;;;;;;;;5023426;28;20026;-76
2022/05/04 00:32:58;;;;;;;4.25;1.95;;;;;;;;;;5012421;28;20038;-76
2022/05/04 00:35:24;;;;;;;3.92;2.10;;;;;;;;;;5012013;28;20038;-75
2022/05/04 00:37:50;;;;;;;4.88;2.17;;;;;;;;;;5012502;28;20077;-75
2022/05/04 00:40:16;;;;;;;4.95;1.80;;;;;;;;;;5018094;28;20065;-75
2022/05/04 00:42:42;;;;;;;5.90;2.20;;;;;;;;;;5014119;28;20040;-76
2022/05/04 00:45:09;;;;;;;4.18;1.55;;;;;;;;;;5013025;28;20033;-76
2022/05/04 00:47:35;;;;;;;6.53;1.83;;;;;;;;;;5028306;28;20112;-75
2022/05/04 00:50:04;;;;;;;6.28;1.80;;;;;;;;;;5015613;28;20704;-75
2022/05/04 00:52:31;;;;;;;3.80;1.90;;;;;;;;;;5025041;28;20034;-75
2022/05/04 00:54:57;;;;;;;4.22;1.77;;;;;;;;;;5019458;28;20045;-75
2022/05/04 01:00:08;;;;;;;6.38;1.85;;;;;;;;;;5012072;28;20168;-75
2022/05/04 01:02:34;;;;;;;4.85;2.00;;;;;;;;;;5010589;28;20033;-76
2022/05/04 01:05:00;;;;;;;5.28;1.60;;;;;;;;;;5012045;28;20080;-75
2022/05/04 01:07:26;;;;;;;4.95;1.88;;;;;;;;;;5027967;28;20041;-76
2022/05/04 01:09:52;;;;;;;5.45;1.90;;;;;;;;;;5016226;28;20387;-75
2022/05/04 01:12:22;;;;;;;6.40;2.40;;;;;;;;;;5011888;28;20044;-75
2022/05/04 01:14:48;;;;;;;5.03;2.38;;;;;;;;;;5012196;28;20053;-75
2022/05/04 01:17:14;;;;;;;4.78;2.15;;;;;;;;;;5019740;28;20471;-76
2022/05/04 01:19:40;;;;;;;4.72;2.22;;;;;;;;;;5017675;28;20038;-76
2022/05/04 01:22:06;;;;;;;4.72;2.50;;;;;;;;;;5011500;28;20045;-75
2022/05/04 01:24:32;;;;;;;9.43;2.58;;;;;;;;;;5010040;28;20083;-75
2022/05/04 01:26:58;;;;;;;6.47;2.80;;;;;;;;;;5026990;28;20049;-76
2022/05/04 01:29:24;;;;;;;5.85;2.78;;;;;;;;;;5012272;28;20157;-75
2022/05/04 01:31:50;;;;;;;8.18;2.50;;;;;;;;;;5011232;28;20080;-76
2022/05/04 01:34:17;;;;;;;6.45;2.45;;;;;;;;;;5026203;28;20038;-75
2022/05/04 01:36:43;;;;;;;7.68;2.75;;;;;;;;;;5011074;28;20026;-76
2022/05/04 01:39:09;;;;;;;6.80;2.58;;;;;;;;;;5010814;28;20452;-75
2022/05/04 01:44:20;;;;;;;7.30;3.47;;;;;;;;;;5013616;28;20084;-76
2022/05/04 01:46:46;;;;;;;4.78;2.33;;;;;;;;;;5015375;28;20038;-76
2022/05/04 01:49:12;;;;;;;6.50;2.10;;;;;;;;;;5023647;28;20830;-75
2022/05/04 01:51:38;;;;;;;5.57;2.50;;;;;;;;;;5011999;28;20865;-76
2022/05/04 01:54:04;;;;;;;8.63;2.60;;;;;;;;;;5014352;28;20097;-75
2022/05/04 01:56:30;;;;;;;6.30;2.53;;;;;;;;;;5012845;28;20034;-76
2022/05/04 01:58:56;;;;;;;10.48;2.20;;;;;;;;;;5014179;28;20064;-75
2022/05/04 02:01:22;;;;;;;8.40;2.50;;;;;;;;;;5010205;28;20033;-75
2022/05/04 02:03:48;;;;;;;6.50;2.38;;;;;;;;;;5016665;28;20475;-75
2022/05/04 02:06:14;;;;;;;4.85;2.40;;;;;;;;;;5019524;28;20356;-75
2022/05/04 02:08:41;;;;;;;5.82;2.28;;;;;;;;;;5015440;28;20029;-75
2022/05/04 02:11:07;;;;;;;4.85;2.15;;;;;;;;;;5015134;28;20030;-76
2022/05/04 02:13:33;;;;;;;6.53;2.00;;;;;;;;;;5010313;28;20495;-75
2022/05/04 02:15:59;;;;;;;5.10;2.50;;;;;;;;;;5009586;28;20048;-75
2022/05/04 02:18:26;;;;;;;9.35;2.50;;;;;;;;;;5009536;28;20460;-75
2022/05/04 02:20:52;;;;;;;6.03;2.35;;;;;;;;;;5012451;28;20033;-75
2022/05/04 02:23:18;;;;;;;7.07;2.67;;;;;;;;;;5010118;28;20040;-75
2022/05/04 02:25:44;;;;;;;6.55;2.30;;;;;;;;;;5009719;28;20074;-75
2022/05/04 02:28:10;;;;;;;5.15;1.70;;;;;;;;;;5009044;28;20060;-75
2022/05/04 02:30:36;;;;;;;5.95;2.42;;;;;;;;;;5009992;28;20073;-75
2022/05/04 02:33:02;;;;;;;5.72;2.17;;;;;;;;;;5012916;28;20620;-76
2022/05/04 02:38:13;;;;;;;5.57;2.25;;;;;;;;;;5012006;28;20057;-75
2022/05/04 02:40:39;;;;;;;7.10;2.30;;;;;;;;;;5009338;28;20037;-75
2022/05/04 02:43:07;;;;;;;8.18;2.42;;;;;;;;;;5013236;28;20037;-75
2022/05/04 02:45:33;;;;;;;5.13;2.28;;;;;;;;;;5019630;28;20065;-75
2022/05/04 02:47:59;;;;;;;8.77;3.17;;;;;;;;;;5015426;28;20427;-75
2022/05/04 02:50:25;;;;;;;5.72;2.17;;;;;;;;;;5026026;28;20026;-75
2022/05/04 02:52:51;;;;;;;11.18;2.50;;;;;;;;;;5018961;28;20149;-75
2022/05/04 02:55:17;;;;;;;5.95;2.40;;;;;;;;;;5010192;28;20152;-75
2022/05/04 02:57:43;;;;;;;6.40;2.70;;;;;;;;;;5018370;28;20038;-75
2022/05/04 03:00:09;;;;;;;7.10;2.35;;;;;;;;;;5014677;28;20030;-75
2022/05/04 03:02:35;;;;;;;10.55;2.80;;;;;;;;;;5022480;28;20084;-75
2022/05/04 03:05:03;;;;;;;6.57;2.42;;;;;;;;;;5008619;28;20195;-75
2022/05/04 03:07:29;;;;;;;7.00;2.70;;;;;;;;;;5008441;28;20503;-75
2022/05/04 03:09:56;;;;;;;7.15;2.58;;;;;;;;;;5008641;28;20356;-75
2022/05/04 03:12:22;;;;;;;5.05;2.55;;;;;;;;;;5016316;28;20034;-75
2022/05/04 03:14:48;;;;;;;5.55;2.85;;;;;;;;;;5012781;28;20036;-76
2022/05/04 03:17:15;;;;;;;7.60;2.53;;;;;;;;;;5018212;28;20042;-76
2022/05/04 03:19:41;;;;;;;5.00;2.20;;;;;;;;;;5015838;28;20040;-75
2022/05/04 03:22:07;;;;;;;5.88;2.00;;;;;;;;;;5014956;28;20558;-75
2022/05/04 03:24:33;;;;;;;5.22;2.30;;;;;;;;;;5010945;28;20025;-75
2022/05/04 03:26:59;;;;;;;4.80;2.05;;;;;;;;;;5028045;28;20085;-75
2022/05/04 03:29:25;;;;;;;6.68;2.35;;;;;;;;;;5013390;28;20053;-75
2022/05/04 03:31:51;;;;;;;5.22;2.17;;;;;;;;;;5019764;28;20041;-75
2022/05/04 03:34:18;;;;;;;5.32;2.60;;;;;;;;;;5015415;28;20041;-75
2022/05/04 03:36:44;;;;;;;5.43;2.65;;;;;;;;;;5023259;28;20816;-75
2022/05/04 03:39:10;;;;;;;5.70;2.88;;;;;;;;;;5016506;28;20033;-75
2022/05/04 03:41:36;;;;;;;9.40;3.17;;;;;;;;;;5019453;28;20038;-75
2022/05/04 03:44:02;;;;;;;6.50;2.97;;;;;;;;;;5018011;28;20041;-75
2022/05/04 03:46:29;;;;;;;6.13;2.72;;;;;;;;;;5023509;28;20045;-75
2022/05/04 03:48:58;;;;;;;6.47;2.33;;;;;;;;;;5011208;28;20127;-75
2022/05/04 03:51:24;;;;;;;8.02;3.90;;;;;;;;;;5016127;28;20632;-75
2022/05/04 03:53:51;;;;;;;5.68;2.50;;;;;;;;;;5014286;28;20037;-75
2022/05/04 03:56:18;;;;;;;5.63;2.17;;;;;;;;;;5015549;28;20110;-75
2022/05/04 03:58:44;;;;;;;6.20;2.00;;;;;;;;;;5011723;28;20484;-75
2022/05/04 04:01:10;;;;;;;4.93;1.77;;;;;;;;;;5021777;28;20076;-75
2022/05/04 04:03:36;;;;;;;6.93;1.50;;;;;;;;;;5019894;28;20921;-75
2022/05/04 04:06:02;;;;;;;5.20;2.08;;;;;;;;;;5016869;28;20037;-75
2022/05/04 04:08:29;;;;;;;6.13;1.88;;;;;;;;;;5014582;28;20116;-75
2022/05/04 04:10:55;;;;;;;3.42;1.88;;;;;;;;;;5012232;28;20038;-75
2022/05/04 04:13:21;;;;;;;11.02;3.45;;;;;;;;;;5023320;28;20053;-75
2022/05/04 04:15:51;;;;;;;7.10;2.35;;;;;;;;;;5015161;28;20034;-75
2022/05/04 04:18:17;;;;;;;6.63;2.60;;;;;;;;;;5023259;28;20549;-76
2022/05/04 04:23:28;;;;;;;10.05;3.53;;;;;;;;;;5029621;28;20048;-76
2022/05/04 04:25:54;;;;;;;11.27;4.32;;;;;;;;;;5023296;28;20037;-76
2022/05/04 04:28:20;;;;;;;6.57;2.90;;;;;;;;;;5020962;28;20061;-76
2022/05/04 04:30:47;;;;;;;8.40;3.97;;;;;;;;;;5029927;28;20553;-75
2022/05/04 04:33:13;;;;;;;9.07;3.10;;;;;;;;;;5017525;28;20030;-75
2022/05/04 04:35:39;;;;;;;7.68;3.03;;;;;;;;;;5011900;28;20030;-75
2022/05/04 04:38:07;;;;;;;10.88;3.67;;;;;;;;;;5014763;28;20044;-76
2022/05/04 04:40:33;;;;;;;6.72;3.00;;;;;;;;;;5012869;28;20116;-75
2022/05/04 04:43:02;;;;;;;8.48;3.45;;;;;;;;;;5015001;28;20045;-75
2022/05/04 04:45:28;;;;;;;9.93;3.10;;;;;;;;;;5015002;28;20473;-75
2022/05/04 04:47:56;;;;;;;9.23;2.63;;;;;;;;;;5012879;28;20033;-75
2022/05/04 04:50:22;;;;;;;9.13;2.88;;;;;;;;;;5017619;28;20030;-75
2022/05/04 04:52:48;;;;;;;8.80;2.75;;;;;;;;;;5016461;28;20034;-76
2022/05/04 04:55:14;;;;;;;8.18;2.70;;;;;;;;;;5011626;28;20034;-75
2022/05/04 04:57:40;;;;;;;8.70;2.60;;;;;;;;;;5015596;28;20030;-76
2022/05/04 05:00:07;;;;;;;9.45;2.03;;;;;;;;;;5022842;28;20057;-75
2022/05/04 05:02:36;;;;;;;8.45;2.40;;;;;;;;;;5016007;28;20034;-75
2022/05/04 05:05:03;;;;;;;8.35;2.33;;;;;;;;;;5027962;28;20134;-75
2022/05/04 05:07:29;;;;;;;6.20;2.67;;;;;;;;;;5017099;28;20034;-75
2022/05/04 05:09:56;;;;;;;6.53;2.25;;;;;;;;;;5024296;28;20040;-75
2022/05/04 05:12:22;;;;;;;6.57;2.40;;;;;;;;;;5009241;28;20046;-75
2022/05/04 05:17:33;;;;;;;8.75;1.75;;;;;;;;;;5020101;28;20184;-75
2022/05/04 05:19:59;;;;;;;8.52;2.50;;;;;;;;;;5014371;28;20073;-75
2022/05/04 05:22:26;;;;;;;7.30;2.90;;;;;;;;;;5017395;28;20431;-76
2022/05/04 05:24:52;;;;;;;5.07;2.40;;;;;;;;;;5017205;28;20042;-75
2022/05/04 05:27:18;;;;;;;5.40;2.28;;;;;;;;;;5017749;28;20058;-76
2022/05/04 05:29:44;;;;;;;4.32;1.60;;;;;;;;;;5014915;28;20139;-76
2022/05/04 05:32:10;;;;;;;6.65;2.03;;;;;;;;;;5014691;28;20460;-75
2022/05/04 05:34:36;;;;;;;7.43;2.60;;;;;;;;;;5010806;28;20033;-76
2022/05/04 05:37:02;;;;;;;8.68;2.10;;;;;;;;;;5015289;28;20037;-75
2022/05/04 05:39:28;;;;;;;6.60;2.55;;;;;;;;;;5017765;28;20057;-75
2022/05/04 05:41:54;;;;;;;8.52;2.70;;;;;;;;;;5014155;28;20068;-75
2022/05/04 05:44:20;;;;;;;11.65;4.32;;;;;;;;;;5015776;28;20041;-75
2022/05/04 05:46:46;;;;;;;9.57;5.18;;;;;;;;;;5013283;28;20030;-76
2022/05/04 05:49:13;;;;;;;10.15;5.25;;;;;;;;;;5015552;28;20029;-76
2022/05/04 05:51:39;;;;;;;14.95;4.32;;;;;;;;;;5018059;28;20032;-76
2022/05/04 05:54:05;;;;;;;10.95;4.85;;;;;;;;;;5013190;28;20034;-75
2022/05/04 05:56:31;;;;;;;10.40;4.47;;;;;;;;;;5013355;28;20050;-75
2022/05/04 05:58:57;;;;;;;6.05;3.17;;;;;;;;;;5015909;28;20474;-75
2022/05/04 06:01:23;;;;;;;9.88;4.53;;;;;;;;;;5013167;28;20048;-75
2022/05/04 06:03:50;;;;;;;14.63;4.32;;;;;;;;;;5021216;28;20064;-75
2022/05/04 06:06:16;;;;;;;10.00;4.05;;;;;;;;;;5021445;28;20072;-75
2022/05/04 06:08:42;;;;;;;10.63;3.33;;;;;;;;;;5009153;28;20061;-75
2022/05/04 06:11:08;;;;;;;4.60;1.55;;;;;;;;;;5011785;28;20033;-75
2022/05/04 06:13:34;;;;;;;3.63;1.42;;;;;;;;;;5011963;28;20042;-75
2022/05/04 06:16:00;;;;;;;6.22;1.80;;;;;;;;;;5011071;28;20149;-75
2022/05/04 06:18:26;;;;;;;5.47;1.80;;;;;;;;;;5017956;28;20426;-75
2022/05/04 06:20:52;;;;;;;5.22;1.77;;;;;;;;;;5015282;28;20743;-75
2022/05/04 06:23:18;;;;;;;12.40;2.33;;;;;;;;;;5014032;28;20069;-75
2022/05/04 06:25:45;;;;;;;12.40;3.35;;;;;;;;;;5016077;28;20030;-75
2022/05/04 06:28:12;;;;;;;8.60;2.50;;;;;;;;;;5030398;28;20702;-75
2022/05/04 06:36:07;;;;;;;5.90;1.77;;;;;;;;;;5014315;28;20545;-75
2022/05/04 06:38:33;;;;;;;3.78;1.42;;;;;;;;;;5011731;28;20030;-75
2022/05/04 06:41:00;;;;;;;7.30;1.80;;;;;;;;;;5017752;28;20026;-75
2022/05/04 06:43:27;;;;;;;3.53;1.42;;;;;;;;;;5017324;28;20718;-75
2022/05/04 06:45:53;;;;;;;6.57;1.67;;;;;;;;;;5019678;28;20099;-75
2022/05/04 06:48:19;;;;;;;3.80;1.63;;;;;;;;;;5013563;28;20060;-75
2022/05/04 06:50:45;;;;;;;6.82;1.80;;;;;;;;;;5024247;28;20529;-75
2022/05/04 06:53:11;;;;;;;4.32;1.80;;;;;;;;;;5017965;28;20037;-75
2022/05/04 06:55:38;;;;;;;6.30;1.60;;;;;;;;;;5018352;28;20048;-75
2022/05/04 06:58:04;;;;;;;4.57;1.55;;;;;;;;;;5016356;28;20038;-75
2022/05/04 07:00:30;;;;;;;4.22;1.50;;;;;;;;;;5015813;28;20425;-75
2022/05/04 07:02:56;;;;;;;8.45;2.00;;;;;;;;;;5009390;28;20057;-75
2022/05/04 07:05:22;;;;;;;5.47;1.70;;;;;;;;;;5012899;28;20080;-75
2022/05/04 07:07:48;;;;;;;7.45;1.65;;;;;;;;;;5023152;28;20516;-76
2022/05/04 07:10:14;;;;;;;3.20;1.58;;;;;;;;;;5018115;28;20034;-76
2022/05/04 07:12:40;;;;;;;8.50;2.55;;;;;;;;;;5020958;28;20451;-76
2022/05/04 07:15:07;;;;;;;6.63;1.75;;;;;;;;;;5015181;28;20075;-75
2022/05/04 07:17:33;;;;;;;6.47;1.90;;;;;;;;;;5027981;28;20044;-75
2022/05/04 07:19:59;;;;;;;8.60;1.88;;;;;;;;;;5017580;28;20394;-75
2022/05/04 07:22:25;;;;;;;5.63;1.40;;;;;;;;;;5013146;28;20029;-75
2022/05/04 07:24:51;;;;;;;6.28;1.40;;;;;;;;;;5021225;28;20041;-75
2022/05/04 07:27:17;;;;;;;5.80;1.67;;;;;;;;;;5013420;28;20053;-75
2022/05/04 07:29:44;;;;;;;4.70;2.13;;;;;;;;;;5018059;28;20134;-75
2022/05/04 07:32:11;;;;;;;7.07;2.20;;;;;;;;;;5016911;28;20025;-75
2022/05/04 07:34:37;;;;;;;6.93;1.58;;;;;;;;;;5021060;28;20124;-76
2022/05/04 07:37:03;;;;;;;3.67;1.40;;;;;;;;;;5014822;28;20041;-75
2022/05/04 07:42:26;;;;;;;6.00;1.60;;;;;;;;;;5017503;28;20137;-75
2022/05/04 07:44:58;;;;;;;5.35;1.58;;;;;;;;;;5013358;28;20038;-75
2022/05/04 07:47:25;;;;;;;7.38;1.50;;;;;;;;;;5016321;28;20053;-75
2022/05/04 07:49:51;;;;;;;8.25;1.58;;;;;;;;;;5021793;28;20039;-76
2022/05/04 07:52:17;;;;;;;3.60;1.58;;;;;;;;;;5015457;28;20049;-75
2022/05/04 07:54:43;;;;;;;3.42;1.50;;;;;;;;;;5009966;28;20030;-75
2022/05/04 07:57:09;;;;;;;4.18;1.60;;;;;;;;;;5018487;28;20134;-75
2022/05/04 07:59:35;;;;;;;4.65;1.30;;;;;;;;;;5013897;28;20393;-75
2022/05/04 08:04:47;;;;;;;6.03;1.50;;;;;;;;;;5023012;28;20045;-75
2022/05/04 08:07:13;;;;;;;8.55;1.52;;;;;;;;;;5012669;28;20485;-75
2022/05/04 08:09:40;;;;;;;4.60;1.33;;;;;;;;;;5022537;28;20042;-75
2022/05/04 08:12:08;;;;;;;6.43;1.33;;;;;;;;;;5009929;28;20076;-75
2022/05/04 08:14:35;;;;;;;7.57;1.70;;;;;;;;;;5012460;28;20029;-76
2022/05/04 08:17:01;;;;;;;5.15;1.55;;;;;;;;;;5012359;28;20397;-75
2022/05/04 08:19:27;;;;;;;7.18;1.40;;;;;;;;;;5014674;28;20049;-75
2022/05/04 08:21:54;;;;;;;6.72;1.20;;;;;;;;;;5009453;28;20192;-75
2022/05/04 08:24:21;;;;;;;7.60;2.60;;;;;;;;;;5012900;28;20133;-75
2022/05/04 08:26:47;;;;;;;8.23;2.25;;;;;;;;;;5012430;28;20081;-75
2022/05/04 08:29:13;;;;;;;3.17;1.58;;;;;;;;;;5012491;28;20057;-75
2022/05/04 08:31:39;;;;;;;5.63;1.40;;;;;;;;;;5016470;28;20061;-75
2022/05/04 08:34:05;;;;;;;9.27;1.75;;;;;;;;;;5021004;28;20699;-75
2022/05/04 08:36:31;;;;;;;6.07;1.67;;;;;;;;;;5010662;28;20033;-75
2022/05/04 08:38:57;;;;;;;5.55;1.35;;;;;;;;;;5016411;28;20141;-75
2022/05/04 08:41:23;;;;;;;5.32;1.70;;;;;;;;;;5017484;28;20079;-75
2022/05/04 08:43:51;;;;;;;8.27;2.20;;;;;;;;;;5009795;28;20034;-75
2022/05/04 08:46:19;;;;;;;11.30;2.20;;;;;;;;;;5020996;28;20044;-75
2022/05/04 08:48:45;;;;;;;5.80;1.80;;;;;;;;;;5014101;28;20471;-75
2022/05/04 08:51:11;;;;;;;6.47;1.85;;;;;;;;;;5014332;28;20037;-75
2022/05/04 08:53:38;;;;;;;4.18;1.23;;;;;;;;;;5018232;28;20087;-75
2022/05/04 08:56:05;;;;;;;4.55;1.30;;;;;;;;;;5020878;28;20061;-75
2022/05/04 08:58:34;;;;;;;3.83;1.15;;;;;;;;;;5014795;28;20091;-75
2022/05/04 09:01:02;;;;;;;4.25;1.55;;;;;;;;;;5018079;28;20915;-75
2022/05/04 09:03:29;;;;;;;4.57;1.20;;;;;;;;;;5017650;28;20030;-75
2022/05/04 09:05:55;;;;;;;3.97;1.35;;;;;;;;;;5019667;28;20087;-75
2022/05/04 09:08:23;;;;;;;2.67;1.30;;;;;;;;;;5017887;28;20498;-75
2022/05/04 09:10:49;;;;;;;2.85;1.23;;;;;;;;;;5019661;28;20117;-75
2022/05/04 09:13:18;;;;;;;2.65;1.00;;;;;;;;;;5018088;28;20049;-75
2022/05/04 09:15:44;;;;;;;6.97;1.42;;;;;;;;;;5017064;28;20033;-75
2022/05/04 09:18:17;;;;;;;4.85;1.52;;;;;;;;;;5014799;28;20038;-75
2022/05/04 09:20:57;;;;;;;3.17;1.27;;;;;;;;;;5015062;28;20029;-75
2022/05/04 09:23:23;;;;;;;5.00;1.60;;;;;;;;;;5016843;28;20044;-75
2022/05/04 09:25:56;;;;;;;4.47;1.20;;;;;;;;;;5021597;28;20042;-75
2022/05/04 09:28:26;;;;;;;4.88;1.63;;;;;;;;;;5014795;28;20053;-75
2022/05/04 09:31:05;;;;;;;4.93;1.30;;;;;;;;;;5021105;28;20533;-75
2022/05/04 09:33:32;;;;;;;7.40;1.35;;;;;;;;;;5021889;28;20032;-75
2022/05/04 09:35:59;;;;;;;4.80;1.35;;;;;;;;;;5015918;28;20070;-75
2022/05/04 09:46:44;;;;;;;3.97;1.40;;;;;;;;;;5018238;28;20064;-75
2022/05/04 09:49:11;;;;;;;6.65;1.20;;;;;;;;;;5013688;28;20365;-75
2022/05/04 09:51:38;;;;;;;3.80;1.13;;;;;;;;;;5018486;28;20040;-75
2022/05/04 09:54:17;;;;;;;6.25;0.88;;;;;;;;;;5013456;28;20037;-75
2022/05/04 09:56:47;;;;;;;5.85;1.08;;;;;;;;;;5013558;28;20034;-75
2022/05/04 09:59:14;;;;;;;3.88;0.90;;;;;;;;;;5012146;28;20045;-75
2022/05/04 10:01:41;;;;;;;3.17;1.02;;;;;;;;;;5014279;28;20034;-75
2022/05/04 10:04:07;;;;;;;3.30;1.23;;;;;;;;;;5016313;28;20072;-75
2022/05/04 10:06:33;;;;;;;4.78;1.05;;;;;;;;;;5017771;28;20136;-75
2022/05/04 10:09:01;;;;;;;4.15;1.27;;;;;;;;;;5012827;28;20037;-75
2022/05/04 10:11:30;;;;;;;6.35;1.20;;;;;;;;;;5017164;28;20506;-75
2022/05/04 10:13:58;;;;;;;3.45;0.82;;;;;;;;;;5017188;28;20033;-75
2022/05/04 10:16:25;;;;;;;4.07;1.13;;;;;;;;;;5013999;28;20065;-75
2022/05/04 10:18:52;;;;;;;2.03;1.05;;;;;;;;;;5013016;28;20619;-75
2022/05/04 10:21:19;;;;;;;2.92;0.90;;;;;;;;;;5023084;28;20061;-75
2022/05/04 10:23:49;;;;;;;3.78;1.25;;;;;;;;;;5016605;28;20077;-75
2022/05/04 10:26:17;;;;;;;2.92;1.15;;;;;;;;;;5015943;28;20667;-75
2022/05/04 10:30:30;;;;;;;3.25;1.13;;;;;;;;;;5016662;28;20107;-75
2022/05/04 10:31:30;;;;;;;3.92;1.30;;;;;;;;;;5020564;28;20129;-76
2022/05/04 10:34:02;;;;;;;2.92;1.13;;;;;;;;;;5017084;28;20042;-75
2022/05/04 10:36:29;;;;;;;5.25;1.20;;;;;;;;;;5016375;28;20889;-75
2022/05/04 10:38:56;;;;;;;4.30;1.33;;;;;;;;;;5018383;28;20112;-75
2022/05/04 10:41:35;;;;;;;2.40;1.00;;;;;;;;;;5015333;28;20033;-75
2022/05/04 10:44:01;;;;;;;5.25;1.05;;;;;;;;;;5012929;28;20037;-75
2022/05/04 10:46:30;;;;;;;5.40;1.10;;;;;;;;;;5012407;28;20055;-75
2022/05/04 10:48:56;;;;;;;3.17;1.40;;;;;;;;;;5018839;28;20034;-75
2022/05/04 10:51:24;;;;;;;5.18;1.30;;;;;;;;;;5017570;28;20048;-75
2022/05/04 10:53:58;;;;;;;3.75;1.48;;;;;;;;;;5010059;28;20055;-75
2022/05/04 10:56:25;;;;;;;2.75;1.25;;;;;;;;;;5011920;28;20400;-75
2022/05/04 10:58:51;;;;;;;3.38;1.27;;;;;;;;;;5016680;28;20049;-75
2022/05/04 11:01:17;;;;;;;5.13;1.42;;;;;;;;;;5013041;28;20671;-75
2022/05/04 11:03:51;;;;;;;4.28;1.25;;;;;;;;;;5009590;28;20037;-75
2022/05/04 11:06:45;;;;;;;9.00;1.63;;;;;;;;;;5021220;28;20041;-75
2022/05/04 11:09:13;;;;;;;6.82;1.20;;;;;;;;;;5017363;28;20064;-75
2022/05/04 11:11:43;;;;;;;4.55;1.10;;;;;;;;;;5018280;28;20406;-75
2022/05/04 11:14:14;;;;;;;6.00;1.10;;;;;;;;;;5012071;28;20085;-75
2022/05/04 11:16:41;;;;;;;3.92;1.10;;;;;;;;;;5017592;28;20029;-75
2022/05/04 11:19:07;;;;;;;3.58;0.95;;;;;;;;;;5012220;28;20044;-75
2022/05/04 11:21:34;;;;;;;2.97;1.30;;;;;;;;;;5016533;28;20060;-75
2022/05/04 11:24:04;;;;;;;10.70;2.03;;;;;;;;;;5013189;28;20046;-75
2022/05/04 11:26:37;;;;;;;12.45;3.03;;;;;;;;;;5012334;28;20052;-75
2022/05/04 11:29:12;;;;;;;12.02;3.08;;;;;;;;;;5011260;28;20096;-75
2022/05/04 11:31:42;;;;;;;8.05;2.45;;;;;;;;;;5019159;28;20026;-75
2022/05/04 11:34:08;;;;;;;8.35;2.33;;;;;;;;;;5017908;28;20041;-75
2022/05/04 11:36:34;;;;;;;7.97;2.17;;;;;;;;;;5013656;28;20033;-75
2022/05/04 11:39:03;;;;;;;7.68;2.22;;;;;;;;;;5009906;28;20072;-75
2022/05/04 11:41:29;;;;;;;5.72;1.92;;;;;;;;;;5018244;28;20048;-75
2022/05/04 11:43:58;;;;;;;6.05;2.05;;;;;;;;;;5011419;28;20056;-75
2022/05/04 11:46:24;;;;;;;5.30;1.90;;;;;;;;;;5021014;28;20044;-74
2022/05/04 11:48:50;;;;;;;5.20;2.50;;;;;;;;;;5017783;28;20065;-75
2022/05/04 11:51:17;;;;;;;8.68;2.80;;;;;;;;;;5012745;28;20061;-75
2022/05/04 11:53:43;;;;;;;9.63;2.55;;;;;;;;;;5014427;28;20048;-75
2022/05/04 11:56:10;;;;;;;7.07;2.72;;;;;;;;;;5015637;28;20029;-75
2022/05/04 11:58:37;;;;;;;7.47;3.10;;;;;;;;;;5015423;28;20049;-75
2022/05/04 12:01:04;;;;;;;20.05;4.30;;;;;;;;;;5012460;28;20030;-75
2022/05/04 12:03:32;;;;;;;13.07;4.35;;;;;;;;;;5015395;28;20074;-75
2022/05/04 12:05:58;;;;;;;13.13;4.40;;;;;;;;;;5011644;28;20087;-75
2022/05/04 12:08:24;;;;;;;10.73;4.15;;;;;;;;;;5013696;28;20515;-75
2022/05/04 12:10:51;;;;;;;8.00;4.32;;;;;;;;;;5017671;28;20395;-75
2022/05/04 12:13:24;;;;;;;7.10;4.07;;;;;;;;;;5018568;28;20038;-75
2022/05/04 12:15:55;;;;;;;10.10;3.92;;;;;;;;;;5015277;28;20563;-75
2022/05/04 12:18:26;;;;;;;12.15;4.97;;;;;;;;;;5009200;28;20036;-75
2022/05/04 12:20:52;;;;;;;9.85;4.85;;;;;;;;;;5015366;28;20120;-75
2022/05/04 12:23:19;;;;;;;11.75;4.55;;;;;;;;;;5018859;28;20121;-75
2022/05/04 12:25:45;;;;;;;7.93;4.47;;;;;;;;;;5021314;28;20420;-75
2022/05/04 12:28:11;;;;;;;8.40;3.58;;;;;;;;;;5020837;28;20137;-75
2022/05/04 12:33:38;;;;;;;5.87;3.20;;;;;;;;;;5017010;28;20542;-74
2022/05/04 12:36:07;;;;;;;6.88;3.85;;;;;;;;;;5017798;28;20359;-75
2022/05/04 12:38:33;;;;;;;7.10;2.95;;;;;;;;;;5018884;28;20029;-75
2022/05/04 12:41:01;;;;;;;8.57;3.67;;;;;;;;;;5017327;28;20824;-75
2022/05/04 12:43:30;;;;;;;5.78;2.92;;;;;;;;;;5019271;28;20042;-75
2022/05/04 12:45:56;;;;;;;9.30;3.85;;;;;;;;;;5015899;28;20025;-75
2022/05/04 12:48:27;;;;;;;7.97;4.15;;;;;;;;;;5019158;28;20044;-75
2022/05/04 12:50:57;;;;;;;8.05;3.92;;;;;;;;;;5023972;28;20037;-75
2022/05/04 12:53:24;;;;;;;5.72;3.20;;;;;;;;;;5014852;28;20188;-75
2022/05/04 12:58:35;;;;;;;6.72;2.08;;;;;;;;;;5019660;28;20438;-74
2022/05/04 13:01:01;;;;;;;5.95;2.15;;;;;;;;;;5022282;28;20037;-75
2022/05/04 13:03:27;;;;;;;5.78;1.83;;;;;;;;;;5022202;28;20073;-75
2022/05/04 13:05:53;;;;;;;4.78;1.95;;;;;;;;;;5017210;28;20065;-75
2022/05/04 13:08:20;;;;;;;4.15;1.73;;;;;;;;;;5020350;28;20128;-75
2022/05/04 13:10:48;;;;;;;3.80;1.83;;;;;;;;;;5019908;28;20034;-75
2022/05/04 13:13:14;;;;;;;8.32;2.05;;;;;;;;;;5018061;28;20033;-75
2022/05/04 13:15:40;;;;;;;4.22;1.73;;;;;;;;;;5015383;28;20105;-74
2022/05/04 13:18:08;;;;;;;5.03;1.88;;;;;;;;;;5015185;28;20540;-74
2022/05/04 13:20:34;;;;;;;5.93;1.80;;;;;;;;;;5016409;28;20037;-75
2022/05/04 13:23:00;;;;;;;5.38;2.00;;;;;;;;;;5015367;28;20056;-75
2022/05/04 13:25:26;;;;;;;3.80;1.30;;;;;;;;;;5022299;28;20859;-75
2022/05/04 13:27:53;;;;;;;5.05;2.00;;;;;;;;;;5015458;28;20832;-74
2022/05/04 13:30:19;;;;;;;11.65;2.22;;;;;;;;;;5018309;28;20035;-75
2022/05/04 13:32:45;;;;;;;4.32;1.80;;;;;;;;;;5014242;28;20069;-74
2022/05/04 13:35:10;;;;;;;4.35;1.50;;;;;;;;;;5013190;28;20108;-75
2022/05/04 13:37:37;;;;;;;5.65;1.60;;;;;;;;;;5019786;28;20041;-75
2022/05/04 13:40:03;;;;;;;52.55;5.03;;;;;;;;;;5016862;28;20040;-74
2022/05/04 13:42:29;;;;;;;12.30;2.10;;;;;;;;;;5016337;28;20041;-74
2022/05/04 13:44:55;;;;;;;10.18;1.60;;;;;;;;;;5020545;28;20073;-75
2022/05/04 13:47:21;;;;;;;11.52;2.78;;;;;;;;;;5015956;28;20038;-74
2022/05/04 13:49:47;;;;;;;12.13;2.30;;;;;;;;;;5017705;28;20044;-75
2022/05/04 13:54:58;;;;;;;5.88;2.35;;;;;;;;;;5016632;28;20115;-75
2022/05/04 13:57:24;;;;;;;4.07;1.80;;;;;;;;;;5015445;28;20048;-75
2022/05/04 13:59:50;;;;;;;4.80;1.80;;;;;;;;;;5015276;28;20551;-75
2022/05/04 14:02:16;;;;;;;6.45;1.70;;;;;;;;;;5014986;28;20109;-75
2022/05/04 14:04:42;;;;;;;4.63;1.40;;;;;;;;;;5014472;28;20069;-75
2022/05/04 14:07:08;;;;;;;3.15;1.20;;;;;;;;;;5016381;28;20040;-74
2022/05/04 14:09:35;;;;;;;3.90;1.10;;;;;;;;;;5015493;28;20040;-75
2022/05/04 14:12:01;;;;;;;3.72;0.95;;;;;;;;;;5021588;28;20034;-75
2022/05/04 14:17:12;;;;;;;3.00;0.80;;;;;;;;;;5020518;28;20132;-74
2022/05/04 14:19:38;;;;;;;2.25;0.70;;;;;;;;;;5017634;28;20060;-74
2022/05/04 14:22:04;;;;;;;1.52;0.60;;;;;;;;;;5014770;28;20038;-74
2022/05/04 14:24:30;;;;;;;2.00;0.80;;;;;;;;;;5018776;28;20064;-74
2022/05/04 14:26:56;;;;;;;1.20;0.60;;;;;;;;;;5019251;28;20146;-74
2022/05/04 14:29:23;;;;;;;5.15;0.98;;;;;;;;;;5014829;28;20564;-75
2022/05/04 14:31:49;;;;;;;2.08;0.80;;;;;;;;;;5020079;28;20104;-74
2022/05/04 14:34:15;;;;;;;2.65;0.90;;;;;;;;;;5014865;28;20034;-74
2022/05/04 14:36:41;;;;;;;2.08;0.60;;;;;;;;;;5011663;28;20022;-74
2022/05/04 14:39:07;;;;;;;1.98;0.68;;;;;;;;;;5016691;28;20797;-74
2022/05/04 14:41:34;;;;;;;1.88;0.68;;;;;;;;;;5016833;28;20422;-75
2022/05/04 14:44:00;;;;;;;5.85;1.25;;;;;;;;;;5014051;28;20033;-74
2022/05/04 14:46:26;;;;;;;2.13;0.60;;;;;;;;;;5021140;28;20530;-75
2022/05/04 14:48:53;;;;;;;3.63;1.00;;;;;;;;;;5015990;28;20037;-74
2022/05/04 14:51:19;;;;;;;2.05;0.80;;;;;;;;;;5017215;28;20040;-74
2022/05/04 14:53:50;;;;;;;4.63;0.80;;;;;;;;;;5013775;28;20037;-74
2022/05/04 14:56:16;;;;;;;8.20;1.10;;;;;;;;;;5015257;28;20029;-75
2022/05/04 14:58:42;;;;;;;4.40;1.23;;;;;;;;;;5013107;28;20049;-75
2022/05/04 15:01:08;;;;;;;5.03;1.08;;;;;;;;;;5013623;28;20029;-74
2022/05/04 15:06:19;;;;;;;2.08;0.93;;;;;;;;;;5016021;28;20533;-75
2022/05/04 15:08:45;;;;;;;4.15;1.35;;;;;;;;;;5013981;28;20030;-75
2022/05/04 15:11:11;;;;;;;3.40;1.27;;;;;;;;;;5014191;28;20480;-75
2022/05/04 15:13:37;;;;;;;2.70;1.23;;;;;;;;;;5010229;28;20833;-75
2022/05/04 15:16:03;;;;;;;4.38;1.10;;;;;;;;;;5015510;28;20534;-74
2022/05/04 15:18:29;;;;;;;2.10;0.98;;;;;;;;;;5013522;28;20041;-74
2022/05/04 15:20:56;;;;;;;3.10;1.10;;;;;;;;;;5011258;28;20934;-75
2022/05/04 15:23:22;;;;;;;6.28;1.40;;;;;;;;;;5010687;28;20042;-74
2022/05/04 15:25:48;;;;;;;4.43;1.40;;;;;;;;;;5015102;28;20042;-74